createdAt,value
2022-10-01T00:02:21.770Z,9.72
2022-10-01T00:04:51.123Z,9.84
2022-10-01T00:07:18.714Z,9.80
2022-10-01T00:09:46.328Z,9.78
2022-10-01T00:12:15.886Z,9.78
2022-10-01T00:14:45.031Z,9.78
2022-10-01T00:17:12.723Z,9.75
2022-10-01T00:19:40.353Z,9.76
2022-10-01T00:22:07.971Z,9.78
2022-10-01T00:24:36.563Z,9.78
2022-10-01T00:27:04.260Z,9.95
2022-10-01T00:29:32.499Z,10.03
2022-10-01T00:32:02.082Z,10.06
2022-10-01T00:34:29.821Z,10.06
2022-10-01T00:36:57.491Z,10.12
2022-10-01T00:39:25.074Z,10.13
2022-10-01T00:41:52.726Z,10.15
2022-10-01T00:44:33.684Z,10.10
2022-10-01T00:47:10.533Z,10.11
2022-10-01T00:49:40.886Z,10.15
2022-10-01T00:52:17.694Z,10.15
2022-10-01T00:54:50.667Z,10.18
2022-10-01T00:57:23.005Z,10.18
2022-10-01T00:59:51.314Z,10.18
2022-10-01T01:02:20.352Z,10.15
2022-10-01T01:04:48.188Z,10.13
2022-10-01T01:07:16.825Z,10.15
2022-10-01T01:09:48.032Z,10.17
2022-10-01T01:12:32.914Z,10.16
2022-10-01T01:15:14.071Z,10.14
2022-10-01T01:17:52.053Z,10.17
2022-10-01T01:20:36.363Z,10.11
2022-10-01T01:23:14.042Z,10.08
2022-10-01T01:25:49.052Z,9.99
2022-10-01T01:28:26.027Z,9.91
2022-10-01T01:30:57.976Z,9.76
2022-10-01T01:33:27.851Z,9.61
2022-10-01T01:35:58.562Z,9.50
2022-10-01T01:38:30.028Z,9.53
2022-10-01T01:41:01.511Z,9.38
2022-10-01T01:43:33.428Z,9.23
2022-10-01T01:46:03.912Z,9.14
2022-10-01T01:48:35.084Z,8.97
2022-10-01T01:51:09.593Z,8.92
2022-10-01T01:53:37.381Z,8.83
2022-10-01T01:56:06.555Z,8.75
2022-10-01T01:58:36.474Z,8.62
2022-10-01T02:01:04.334Z,8.64
2022-10-01T02:03:35.398Z,8.50
2022-10-01T02:06:14.243Z,8.43
2022-10-01T02:08:50.694Z,8.33
2022-10-01T02:11:26.459Z,8.28
2022-10-01T02:14:05.134Z,8.11
2022-10-01T02:16:38.878Z,8.07
2022-10-01T02:19:13.994Z,7.99
2022-10-01T02:21:44.190Z,7.94
2022-10-01T02:24:19.634Z,7.86
2022-10-01T02:26:51.696Z,7.74
2022-10-01T02:29:23.208Z,7.65
2022-10-01T02:31:55.591Z,7.60
2022-10-01T02:34:29.267Z,7.50
2022-10-01T02:37:00.714Z,7.42
2022-10-01T02:39:31.704Z,7.35
2022-10-01T02:42:00.660Z,7.23
2022-10-01T02:44:37.894Z,7.16
2022-10-01T02:47:10.692Z,7.10
2022-10-01T02:49:41.255Z,7.03
2022-10-01T02:52:15.440Z,6.94
2022-10-01T02:54:49.948Z,6.85
2022-10-01T02:57:24.322Z,6.79
2022-10-01T02:59:54.446Z,6.73
2022-10-01T03:02:22.557Z,6.67
2022-10-01T03:04:50.197Z,6.69
2022-10-01T03:07:18.538Z,6.67
2022-10-01T03:09:46.180Z,6.55
2022-10-01T03:12:13.835Z,6.49
2022-10-01T03:14:41.960Z,6.53
2022-10-01T03:17:11.593Z,6.44
2022-10-01T03:19:40.219Z,6.36
2022-10-01T03:22:08.168Z,6.29
2022-10-01T03:24:35.887Z,6.24
2022-10-01T03:27:03.469Z,6.19
2022-10-01T03:29:31.093Z,6.14
2022-10-01T03:31:58.679Z,6.11
2022-10-01T03:34:27.982Z,6.08
2022-10-01T03:36:55.611Z,6.02
2022-10-01T03:39:23.244Z,6.02
2022-10-01T03:41:50.871Z,6.07
2022-10-01T03:44:18.525Z,-98.16
2022-10-01T03:46:46.290Z,6.02
2022-10-01T03:49:13.952Z,-144.85
2022-10-01T03:51:43.203Z,-144.85
2022-10-01T03:54:11.129Z,-144.85
2022-10-01T03:56:40.814Z,-144.85
2022-10-01T03:59:08.419Z,-98.16
2022-10-01T04:01:36.319Z,-98.16
2022-10-01T04:04:04.809Z,6.02
2022-10-01T04:06:33.043Z,-98.16
2022-10-01T04:09:02.208Z,-144.85
2022-10-01T04:11:30.126Z,5.57
2022-10-01T04:13:58.515Z,5.55
2022-10-01T04:16:26.223Z,5.50
2022-10-01T04:18:54.539Z,5.59
2022-10-01T04:21:22.232Z,5.77
2022-10-01T04:23:50.548Z,5.80
2022-10-01T04:26:19.733Z,-144.85
2022-10-01T04:28:47.527Z,-144.85
2022-10-01T04:31:28.102Z,-144.85
2022-10-01T04:33:57.844Z,5.80
2022-10-01T04:36:26.591Z,-144.85
2022-10-01T04:38:59.380Z,-144.85
2022-10-01T04:41:31.739Z,6.35
2022-10-01T04:44:00.775Z,-144.85
2022-10-01T04:46:29.679Z,-144.85
2022-10-01T04:48:57.395Z,-144.85
2022-10-01T04:51:25.049Z,6.72
2022-10-01T04:53:52.652Z,6.78
2022-10-01T04:56:20.301Z,6.81
2022-10-01T04:58:49.264Z,-144.85
2022-10-01T05:01:16.973Z,-144.85
2022-10-01T05:03:44.640Z,7.01
2022-10-01T05:06:12.257Z,-98.16
2022-10-01T05:08:39.885Z,-144.85
2022-10-01T05:11:07.574Z,-144.85
2022-10-01T05:13:35.232Z,-144.85
2022-10-01T05:16:04.384Z,7.01
2022-10-01T05:18:32.400Z,-98.16
2022-10-01T05:21:00.109Z,-144.85
2022-10-01T05:23:27.700Z,-144.85
2022-10-01T05:25:55.322Z,-144.85
2022-10-01T05:28:23.017Z,-144.85
2022-10-01T05:30:50.908Z,-144.85
2022-10-01T05:33:19.888Z,-144.85
2022-10-01T05:35:47.837Z,-144.85
2022-10-01T05:38:15.447Z,-144.85
2022-10-01T05:40:47.307Z,-144.85
2022-10-01T05:43:15.479Z,-144.85
2022-10-01T05:45:43.761Z,-144.85
2022-10-01T05:48:11.979Z,-144.85
2022-10-01T05:50:42.344Z,-144.85
2022-10-01T05:53:13.923Z,-144.85
2022-10-01T05:55:41.558Z,-144.85
2022-10-01T05:58:11.054Z,-144.85
2022-10-01T06:00:40.398Z,-144.85
2022-10-01T06:03:08.903Z,-144.85
2022-10-01T06:05:38.431Z,-144.85
2022-10-01T06:08:09.623Z,-144.85
2022-10-01T06:10:37.728Z,-144.85
2022-10-01T06:13:06.476Z,-144.85
2022-10-01T06:15:37.492Z,-144.85
2022-10-01T06:18:05.560Z,-144.85
2022-10-01T06:20:33.336Z,-144.85
2022-10-01T06:23:01.104Z,-144.85
2022-10-01T06:25:30.334Z,-144.85
2022-10-01T06:28:00.476Z,-144.85
2022-10-01T06:30:31.661Z,-144.85
2022-10-01T06:33:02.683Z,-144.85
2022-10-01T06:35:30.538Z,-144.85
2022-10-01T06:37:58.189Z,-144.85
2022-10-01T06:40:26.300Z,-144.85
2022-10-01T06:42:58.328Z,-144.85
2022-10-01T06:45:26.410Z,-144.85
2022-10-01T06:47:57.993Z,-144.85
2022-10-01T06:50:26.417Z,-144.85
2022-10-01T06:52:54.844Z,-144.85
2022-10-01T06:55:25.245Z,7.01
2022-10-01T06:57:58.305Z,9.94
2022-10-01T07:00:26.530Z,10.02
2022-10-01T07:02:55.602Z,10.11
2022-10-01T07:05:23.609Z,10.19
2022-10-01T07:07:51.887Z,10.27
2022-10-01T07:10:21.091Z,10.43
2022-10-01T07:12:49.936Z,10.54
2022-10-01T07:15:20.431Z,10.62
2022-10-01T07:17:49.854Z,10.66
2022-10-01T07:20:18.709Z,10.71
2022-10-01T07:22:46.726Z,10.75
2022-10-01T07:25:14.911Z,10.86
2022-10-01T07:27:42.499Z,10.91
2022-10-01T07:30:11.063Z,10.93
2022-10-01T07:32:40.036Z,10.96
2022-10-01T07:35:09.001Z,11.04
2022-10-01T07:37:37.174Z,11.09
2022-10-01T07:40:07.532Z,11.14
2022-10-01T07:42:35.459Z,11.18
2022-10-01T07:45:04.260Z,11.30
2022-10-01T07:47:32.157Z,11.37
2022-10-01T07:50:01.104Z,11.35
2022-10-01T07:52:28.749Z,11.35
2022-10-01T07:54:56.373Z,11.43
2022-10-01T07:57:23.978Z,11.52
2022-10-01T07:59:55.703Z,11.62
2022-10-01T08:02:23.978Z,11.69
2022-10-01T08:05:09.021Z,11.75
2022-10-01T08:07:37.993Z,11.77
2022-10-01T08:10:06.540Z,11.88
2022-10-01T08:12:34.211Z,11.97
2022-10-01T08:15:02.149Z,12.03
2022-10-01T08:17:29.809Z,12.07
2022-10-01T08:19:57.452Z,11.98
2022-10-01T08:22:25.181Z,11.96
2022-10-01T08:24:54.162Z,11.99
2022-10-01T08:27:21.824Z,12.17
2022-10-01T08:29:49.565Z,12.19
2022-10-01T08:32:17.244Z,12.22
2022-10-01T08:34:44.996Z,12.20
2022-10-01T08:37:12.907Z,12.24
2022-10-01T08:39:40.512Z,12.20
2022-10-01T08:42:22.675Z,12.26
2022-10-01T08:44:53.048Z,12.42
2022-10-01T08:47:28.586Z,12.45
2022-10-01T08:49:58.120Z,12.38
2022-10-01T08:52:29.403Z,12.38
2022-10-01T08:55:01.086Z,12.38
2022-10-01T08:57:33.946Z,12.40
2022-10-01T09:00:05.781Z,12.48
2022-10-01T09:02:35.316Z,12.56
2022-10-01T09:05:06.552Z,12.60
2022-10-01T09:08:02.449Z,12.62
2022-10-01T09:10:44.115Z,12.69
2022-10-01T09:13:30.124Z,12.72
2022-10-01T09:16:01.220Z,12.76
2022-10-01T09:18:40.149Z,12.88
2022-10-01T09:21:17.759Z,12.92
2022-10-01T09:23:57.079Z,12.78
2022-10-01T09:26:25.846Z,12.82
2022-10-01T09:28:56.776Z,12.99
2022-10-01T09:31:29.046Z,13.15
2022-10-01T09:34:03.092Z,13.27
2022-10-01T09:36:37.962Z,13.17
2022-10-01T09:39:16.321Z,13.23
2022-10-01T09:41:46.099Z,13.36
2022-10-01T09:44:19.010Z,13.27
2022-10-01T09:46:47.671Z,13.03
2022-10-01T09:49:23.343Z,12.99
2022-10-01T09:51:56.815Z,13.07
2022-10-01T09:54:33.056Z,13.00
2022-10-01T09:57:07.090Z,13.06
2022-10-01T09:59:45.054Z,13.05
2022-10-01T10:02:23.536Z,12.95
2022-10-01T10:05:00.403Z,12.90
2022-10-01T10:07:29.716Z,12.78
2022-10-01T10:09:57.383Z,12.73
2022-10-01T10:12:30.395Z,12.78
2022-10-01T10:15:08.646Z,12.75
2022-10-01T10:17:38.075Z,12.70
2022-10-01T10:20:17.216Z,12.54
2022-10-01T10:22:44.861Z,12.34
2022-10-01T10:25:20.961Z,12.21
2022-10-01T10:27:55.330Z,12.11
2022-10-01T10:30:26.424Z,12.12
2022-10-01T10:33:03.323Z,12.09
2022-10-01T10:35:31.750Z,12.06
2022-10-01T10:38:00.166Z,11.96
2022-10-01T10:40:33.236Z,11.83
2022-10-01T10:43:01.338Z,11.74
2022-10-01T10:45:37.982Z,11.61
2022-10-01T10:48:09.116Z,11.45
2022-10-01T10:50:40.313Z,11.41
2022-10-01T10:53:22.394Z,11.38
2022-10-01T10:55:58.385Z,11.31
2022-10-01T10:58:27.627Z,11.17
2022-10-01T11:00:58.750Z,11.12
2022-10-01T11:03:29.399Z,11.13
2022-10-01T11:06:03.565Z,11.14
2022-10-01T11:08:31.934Z,11.19
2022-10-01T11:11:12.143Z,11.19
2022-10-01T11:13:59.608Z,11.12
2022-10-01T11:16:44.218Z,11.11
2022-10-01T11:19:29.287Z,11.01
2022-10-01T11:22:12.852Z,10.95
2022-10-01T11:25:00.934Z,-98.16
2022-10-01T11:27:39.563Z,10.78
2022-10-01T11:30:11.865Z,10.78
2022-10-01T11:32:46.057Z,10.78
2022-10-01T11:35:33.089Z,10.47
2022-10-01T11:38:19.603Z,10.44
2022-10-01T11:40:50.952Z,-144.85
2022-10-01T11:43:25.192Z,-144.85
2022-10-01T11:45:57.966Z,-144.85
2022-10-01T11:48:32.531Z,-144.85
2022-10-01T11:51:07.664Z,-144.85
2022-10-01T11:53:40.506Z,-144.85
2022-10-01T11:56:31.886Z,-144.85
2022-10-01T11:59:05.465Z,-144.85
2022-10-01T12:01:39.095Z,-144.85
2022-10-01T12:04:18.222Z,-144.85
2022-10-01T12:06:55.074Z,-144.85
2022-10-01T12:09:27.745Z,-144.85
2022-10-01T12:12:01.239Z,-144.85
2022-10-01T12:14:36.904Z,-144.85
2022-10-01T12:17:13.153Z,-144.85
2022-10-01T12:19:46.367Z,-144.85
2022-10-01T12:22:16.441Z,-144.85
2022-10-01T12:24:45.588Z,-144.85
2022-10-01T12:27:30.312Z,-144.85
2022-10-01T12:30:04.368Z,-144.85
2022-10-01T12:32:43.601Z,-144.85
2022-10-01T12:35:25.788Z,-144.85
2022-10-01T12:38:08.351Z,-144.85
2022-10-01T12:40:46.506Z,-144.85
2022-10-01T12:43:46.143Z,-144.85
2022-10-01T12:46:26.143Z,-144.85
2022-10-01T12:49:01.584Z,-144.85
2022-10-01T12:51:41.235Z,-144.85
2022-10-01T12:54:27.164Z,-144.85
2022-10-01T12:57:04.314Z,-144.85
2022-10-01T12:59:46.929Z,-144.85
2022-10-01T13:02:30.335Z,-144.85
2022-10-01T13:05:17.635Z,-144.85
2022-10-01T13:08:03.376Z,-144.85
2022-10-01T13:10:43.970Z,-144.85
2022-10-01T13:13:17.846Z,-144.85
2022-10-01T13:15:49.479Z,-144.85
2022-10-01T13:18:26.954Z,-144.85
2022-10-01T13:21:05.575Z,-144.85
2022-10-01T13:23:41.836Z,-144.85
2022-10-01T13:26:15.227Z,-144.85
2022-10-01T13:29:01.753Z,-144.85
2022-10-01T13:31:37.343Z,-144.85
2022-10-01T13:34:24.345Z,-144.85
2022-10-01T13:36:51.974Z,-144.85
2022-10-01T13:39:27.201Z,-144.85
2022-10-01T13:41:58.992Z,-144.85
2022-10-01T13:44:34.055Z,10.41
2022-10-01T13:47:07.078Z,-98.16
2022-10-01T13:49:37.261Z,10.43
2022-10-01T13:52:06.052Z,10.46
2022-10-01T13:54:39.842Z,-144.85
2022-10-01T13:57:11.496Z,-144.85
2022-10-01T13:59:39.712Z,-144.85
2022-10-01T14:02:30.814Z,-144.85
2022-10-01T14:05:09.195Z,-144.85
2022-10-01T14:07:40.265Z,-144.85
2022-10-01T14:10:14.285Z,-144.85
2022-10-01T14:13:03.067Z,-144.85
2022-10-01T14:16:08.295Z,-144.85
2022-10-01T14:18:41.853Z,-144.85
2022-10-01T14:21:28.517Z,-144.85
2022-10-01T14:24:05.256Z,-144.85
2022-10-01T14:26:42.939Z,-144.85
2022-10-01T14:29:23.976Z,-144.85
2022-10-01T14:32:01.608Z,-144.85
2022-10-01T14:34:41.325Z,-144.85
2022-10-01T14:37:16.942Z,-144.85
2022-10-01T14:39:45.746Z,-144.85
2022-10-01T14:42:18.290Z,-144.85
2022-10-01T14:44:47.842Z,-144.85
2022-10-01T14:47:20.482Z,-144.85
2022-10-01T14:49:49.408Z,-144.85
2022-10-01T14:52:23.500Z,-144.85
2022-10-01T14:54:59.095Z,-144.85
2022-10-01T14:57:29.922Z,-144.85
2022-10-01T15:00:00.187Z,-144.85
2022-10-01T15:02:29.521Z,-144.85
2022-10-01T15:04:58.467Z,-144.85
2022-10-01T15:07:29.246Z,-144.85
2022-10-01T15:10:07.206Z,-144.85
2022-10-01T15:12:41.791Z,-144.85
2022-10-01T15:15:19.514Z,-144.85
2022-10-01T15:17:47.816Z,-144.85
2022-10-01T15:20:15.670Z,-144.85
2022-10-01T15:22:48.051Z,-144.85
2022-10-01T15:25:20.858Z,11.04
2022-10-01T15:27:50.621Z,11.03
2022-10-01T15:30:19.466Z,11.01
2022-10-01T15:32:49.264Z,21.25
2022-10-01T15:35:21.512Z,-144.85
2022-10-01T15:37:51.443Z,-144.85
2022-10-01T15:40:27.689Z,-144.85
2022-10-01T15:43:27.602Z,-144.85
2022-10-01T15:46:16.801Z,-144.85
2022-10-01T15:48:44.960Z,-144.85
2022-10-01T15:51:21.891Z,-144.85
2022-10-01T15:53:49.717Z,-144.85
2022-10-01T15:56:20.032Z,-144.85
2022-10-01T15:58:52.681Z,-144.85
2022-10-01T16:01:24.352Z,-144.85
2022-10-01T16:03:55.996Z,-144.85
2022-10-01T16:06:27.118Z,-144.85
2022-10-01T16:09:06.611Z,-144.85
2022-10-01T16:11:51.889Z,-144.85
2022-10-01T16:14:31.445Z,-144.85
2022-10-01T16:17:31.979Z,-144.85
2022-10-01T16:20:03.809Z,-144.85
2022-10-01T16:22:33.740Z,-144.85
2022-10-01T16:25:03.227Z,-144.85
2022-10-01T16:27:35.568Z,-144.85
2022-10-01T16:30:13.275Z,-144.85
2022-10-01T16:32:41.557Z,-144.85
2022-10-01T16:35:21.432Z,-144.85
2022-10-01T16:37:50.239Z,-144.85
2022-10-01T16:40:22.263Z,-144.85
2022-10-01T16:42:50.954Z,-144.85
2022-10-01T16:45:22.603Z,-144.85
2022-10-01T16:47:50.354Z,-144.85
2022-10-01T16:50:21.338Z,-144.85
2022-10-01T16:52:52.408Z,-144.85
2022-10-01T16:55:23.495Z,-144.85
2022-10-01T16:57:51.378Z,-144.85
2022-10-01T17:00:21.919Z,-144.85
2022-10-01T17:02:49.613Z,-144.85
2022-10-01T17:05:20.136Z,-144.85
2022-10-01T17:07:47.946Z,-144.85
2022-10-01T17:10:17.391Z,-144.85
2022-10-01T17:12:47.753Z,-144.85
2022-10-01T17:15:17.938Z,-144.85
2022-10-01T17:17:47.292Z,-144.85
2022-10-01T17:20:15.034Z,-144.85
2022-10-01T17:22:43.388Z,-144.85
2022-10-01T17:25:15.505Z,-144.85
2022-10-01T17:27:43.479Z,-144.85
2022-10-01T17:30:11.817Z,-144.85
2022-10-01T17:32:45.796Z,-144.85
2022-10-01T17:35:15.995Z,-144.85
2022-10-01T17:37:43.883Z,-144.85
2022-10-01T17:40:12.258Z,-144.85
2022-10-01T17:42:40.047Z,-144.85
2022-10-01T17:45:10.827Z,-144.85
2022-10-01T17:47:42.917Z,-144.85
2022-10-01T17:50:11.382Z,-144.85
2022-10-01T17:52:40.427Z,-144.85
2022-10-01T17:55:09.089Z,-144.85
2022-10-01T17:57:36.803Z,-144.85
2022-10-01T18:00:05.802Z,-144.85
2022-10-01T18:02:42.624Z,-144.85
2022-10-01T18:05:12.430Z,-144.85
2022-10-01T18:07:41.735Z,-144.85
2022-10-01T18:10:11.798Z,-144.85
2022-10-01T18:12:39.682Z,-144.85
2022-10-01T18:15:08.405Z,-144.85
2022-10-01T18:17:43.016Z,-144.85
2022-10-01T18:20:11.312Z,-144.85
2022-10-01T18:22:41.013Z,-144.85
2022-10-01T18:25:10.651Z,-144.85
2022-10-01T18:27:38.364Z,-144.85
2022-10-01T18:30:06.874Z,-144.85
2022-10-01T18:32:40.361Z,-144.85
2022-10-01T18:35:20.267Z,-144.85
2022-10-01T18:37:51.466Z,-144.85
2022-10-01T18:40:24.234Z,-144.85
2022-10-01T18:42:57.769Z,-144.85
2022-10-01T18:45:41.794Z,-144.85
2022-10-01T18:48:24.412Z,-144.85
2022-10-01T18:51:01.415Z,-144.85
2022-10-01T18:53:44.493Z,-144.85
2022-10-01T18:56:31.206Z,-144.85
2022-10-01T18:59:23.401Z,-144.85
2022-10-01T19:02:01.537Z,-144.85
2022-10-01T19:05:01.505Z,-144.85
2022-10-01T19:07:43.676Z,-144.85
2022-10-01T19:10:23.028Z,-144.85
2022-10-01T19:13:00.777Z,-144.85
2022-10-01T19:15:41.283Z,-144.85
2022-10-01T19:18:22.852Z,-144.85
2022-10-01T19:20:59.416Z,-144.85
2022-10-01T19:23:42.406Z,-144.85
2022-10-01T19:26:16.579Z,-144.85
2022-10-01T19:28:58.092Z,-144.85
2022-10-01T19:31:34.736Z,-144.85
2022-10-01T19:34:08.946Z,11.87
2022-10-01T19:36:41.251Z,11.85
2022-10-01T19:39:16.922Z,11.82
2022-10-01T19:41:52.655Z,11.76
2022-10-01T19:44:27.301Z,11.81
2022-10-01T19:46:58.663Z,11.81
2022-10-01T19:49:29.990Z,11.83
2022-10-01T19:52:00.069Z,-144.85
2022-10-01T19:54:32.934Z,-144.85
2022-10-01T19:57:06.422Z,-144.85
2022-10-01T19:59:35.419Z,-144.85
2022-10-01T20:02:14.388Z,-144.85
2022-10-01T20:04:51.725Z,-144.85
2022-10-01T20:07:24.649Z,-144.85
2022-10-01T20:10:05.493Z,-144.85
2022-10-01T20:12:40.168Z,-144.85
2022-10-01T20:15:21.703Z,-144.85
2022-10-01T20:18:13.242Z,-144.85
2022-10-01T20:20:49.293Z,-144.85
2022-10-01T20:23:36.670Z,-144.85
2022-10-01T20:26:16.046Z,-144.85
2022-10-01T20:28:52.741Z,-144.85
2022-10-01T20:31:29.192Z,-144.85
2022-10-01T20:34:05.955Z,11.95
2022-10-01T20:36:39.614Z,11.98
2022-10-01T20:39:17.033Z,11.95
2022-10-01T20:41:47.702Z,11.91
2022-10-01T20:44:18.284Z,11.84
2022-10-01T20:46:51.138Z,11.82
2022-10-01T20:49:27.189Z,11.81
2022-10-01T20:52:00.250Z,11.78
2022-10-01T20:54:33.528Z,11.78
2022-10-01T20:57:09.204Z,11.78
2022-10-01T20:59:42.299Z,-144.85
2022-10-01T21:02:35.303Z,-144.85
2022-10-01T21:05:07.025Z,-144.85
2022-10-01T21:07:38.563Z,-144.85
2022-10-01T21:10:17.113Z,11.78
2022-10-01T21:12:53.088Z,11.68
2022-10-01T21:15:24.775Z,-144.85
2022-10-01T21:18:01.857Z,-144.85
2022-10-01T21:20:55.615Z,11.73
2022-10-01T21:23:37.883Z,11.74
2022-10-01T21:26:14.971Z,11.75
2022-10-01T21:29:02.954Z,11.74
2022-10-01T21:31:41.564Z,11.70
2022-10-01T21:34:17.989Z,11.73
2022-10-01T21:36:59.542Z,11.73
2022-10-01T21:39:47.816Z,-98.16
2022-10-01T21:42:19.429Z,11.67
2022-10-01T21:45:04.879Z,11.66
2022-10-01T21:47:47.811Z,11.66
2022-10-01T21:50:35.611Z,11.65
2022-10-01T21:53:28.818Z,11.63
2022-10-01T21:56:09.310Z,11.60
2022-10-01T21:58:52.368Z,11.59
2022-10-01T22:01:30.923Z,11.61
2022-10-01T22:04:06.848Z,-144.85
2022-10-01T22:06:44.553Z,-144.85
2022-10-01T22:09:19.828Z,-144.85
2022-10-01T22:11:50.981Z,-144.85
2022-10-01T22:14:21.274Z,-144.85
2022-10-01T22:16:54.509Z,-144.85
2022-10-01T22:19:28.013Z,-144.85
2022-10-01T22:22:02.951Z,11.61
2022-10-01T22:24:36.470Z,-144.85
2022-10-01T22:27:12.333Z,-144.85
2022-10-01T22:29:43.373Z,-144.85
2022-10-01T22:32:14.615Z,11.61
2022-10-01T22:34:46.931Z,-144.85
2022-10-01T22:37:21.776Z,-144.85
2022-10-01T22:39:55.619Z,-144.85
2022-10-01T22:42:28.884Z,-144.85
2022-10-01T22:45:01.332Z,-144.85
2022-10-01T22:47:57.636Z,-144.85
2022-10-01T22:50:37.550Z,-144.85
2022-10-01T22:53:31.375Z,-144.85
2022-10-01T22:55:59.262Z,-144.85
2022-10-01T22:58:52.991Z,-144.85
2022-10-01T23:05:46.499Z,11.55
2022-10-01T23:08:22.829Z,11.58
2022-10-01T23:11:01.753Z,11.62
2022-10-01T23:13:40.374Z,11.57
2022-10-01T23:16:17.908Z,11.66
2022-10-01T23:18:55.331Z,11.70
2022-10-01T23:21:35.446Z,11.73
2022-10-01T23:24:14.902Z,11.79
2022-10-01T23:26:51.135Z,11.81
2022-10-01T23:29:36.467Z,11.82
2022-10-01T23:32:12.457Z,11.83
2022-10-01T23:34:48.120Z,11.89
2022-10-01T23:37:41.068Z,11.93
2022-10-01T23:40:12.368Z,11.95
2022-10-01T23:42:44.665Z,12.00
2022-10-01T23:45:20.129Z,12.02
2022-10-01T23:47:55.022Z,12.06
2022-10-01T23:50:28.125Z,12.08
2022-10-01T23:53:12.817Z,12.07
2022-10-01T23:56:05.048Z,12.08
2022-10-01T23:58:41.172Z,12.07
